createdAt,value
2018-08-09T00:00:28.205Z,16.10
2018-08-09T00:04:32.664Z,16.50
2018-08-09T00:08:36.894Z,13.07
2018-08-09T00:12:41.109Z,14.80
2018-08-09T00:16:45.525Z,13.23
2018-08-09T00:20:49.743Z,12.37
2018-08-09T00:24:54.171Z,12.03
2018-08-09T00:28:58.724Z,12.80
2018-08-09T00:33:03.211Z,13.50
2018-08-09T00:37:07.649Z,10.83
2018-08-09T00:41:12.168Z,10.47
2018-08-09T00:45:16.462Z,9.80
2018-08-09T00:49:20.970Z,12.17
2018-08-09T00:53:25.524Z,9.97
2018-08-09T00:57:29.968Z,11.47
2018-08-09T01:01:34.252Z,11.37
2018-08-09T01:05:38.589Z,10.77
2018-08-09T01:09:42.777Z,10.73
2018-08-09T01:13:47.124Z,13.13
2018-08-09T01:17:51.341Z,12.37
2018-08-09T01:21:55.836Z,13.07
2018-08-09T01:26:00.045Z,13.83
2018-08-09T01:30:04.550Z,13.37
2018-08-09T01:34:10.092Z,12.73
2018-08-09T01:38:14.370Z,15.50
2018-08-09T01:42:29.395Z,14.97
2018-08-09T01:46:33.664Z,10.47
2018-08-09T01:50:37.976Z,11.50
2018-08-09T01:54:42.236Z,13.87
2018-08-09T01:58:46.912Z,12.47
2018-08-09T02:02:51.176Z,11.70
2018-08-09T02:06:55.461Z,10.90
2018-08-09T02:10:59.714Z,9.97
2018-08-09T02:15:04.130Z,11.63
2018-08-09T02:19:08.332Z,10.50
2018-08-09T02:23:12.679Z,10.30
2018-08-09T02:27:17.067Z,13.67
2018-08-09T02:31:21.514Z,20.57
2018-08-09T02:35:25.764Z,14.33
2018-08-09T02:39:30.093Z,16.40
2018-08-09T02:43:34.323Z,17.20
2018-08-09T02:47:38.720Z,15.03
2018-08-09T02:51:42.937Z,16.90
2018-08-09T02:55:47.281Z,19.40
2018-08-09T02:59:51.485Z,21.43
2018-08-09T03:03:55.907Z,38.67
2018-08-09T03:08:00.085Z,23.13
2018-08-09T03:12:04.312Z,25.77
2018-08-09T03:16:08.654Z,33.93
2018-08-09T03:20:12.834Z,55.87
2018-08-09T03:24:17.384Z,35.03
2018-08-09T03:28:21.611Z,47.40
2018-08-09T03:32:25.934Z,62.97
2018-08-09T03:36:30.149Z,45.17
2018-08-09T03:40:34.464Z,58.83
2018-08-09T03:44:38.729Z,22.90
2018-08-09T03:48:43.000Z,45.23
2018-08-09T03:52:47.512Z,26.90
2018-08-09T03:56:51.739Z,33.80
2018-08-09T04:00:57.058Z,26.93
2018-08-09T04:05:01.270Z,37.37
2018-08-09T04:09:09.137Z,25.10
2018-08-09T04:13:13.323Z,28.80
2018-08-09T04:17:20.800Z,45.43
2018-08-09T04:21:25.009Z,35.10
2018-08-09T04:25:29.310Z,36.47
2018-08-09T04:29:33.577Z,69.33
2018-08-09T04:33:37.977Z,31.13
2018-08-09T04:37:42.334Z,31.13
2018-08-09T04:41:46.693Z,20.50
2018-08-09T04:45:50.890Z,26.27
2018-08-09T04:49:55.152Z,20.83
2018-08-09T04:53:59.357Z,67.23
2018-08-09T04:58:03.686Z,16.50
2018-08-09T05:02:08.223Z,11.27
2018-08-09T05:06:12.915Z,11.27
2018-08-09T05:10:17.301Z,12.20
2018-08-09T05:14:21.789Z,13.07
2018-08-09T05:18:26.137Z,13.63
2018-08-09T05:22:30.487Z,12.20
2018-08-09T05:26:34.979Z,10.30
2018-08-09T05:30:39.173Z,10.97
2018-08-09T05:34:43.504Z,11.83
2018-08-09T05:38:47.856Z,10.53
2018-08-09T05:42:52.213Z,11.17
2018-08-09T05:46:56.523Z,10.60
2018-08-09T05:51:00.920Z,11.00
2018-08-09T05:55:05.191Z,12.43
2018-08-09T05:59:09.427Z,10.50
2018-08-09T06:03:13.876Z,11.23
2018-08-09T06:07:18.076Z,13.17
2018-08-09T06:11:22.392Z,13.27
2018-08-09T06:15:26.784Z,17.20
2018-08-09T06:19:31.017Z,14.60
2018-08-09T06:23:35.243Z,15.53
2018-08-09T06:27:39.578Z,20.30
2018-08-09T06:31:43.939Z,15.77
2018-08-09T06:35:48.253Z,27.57
2018-08-09T06:39:52.598Z,89.07
2018-08-09T06:43:56.976Z,179.40
2018-08-09T06:48:01.184Z,126.90
2018-08-09T06:52:05.507Z,100.23
2018-08-09T06:56:09.726Z,116.47
2018-08-09T07:00:14.311Z,104.07
2018-08-09T07:04:18.544Z,94.60
2018-08-09T07:08:22.848Z,82.80
2018-08-09T07:12:27.158Z,70.50
2018-08-09T07:16:31.357Z,50.60
2018-08-09T07:20:35.787Z,32.80
2018-08-09T07:24:39.998Z,46.83
2018-08-09T07:28:44.312Z,30.97
2018-08-09T07:32:48.514Z,26.53
2018-08-09T07:36:52.876Z,23.67
2018-08-09T07:40:57.204Z,26.37
2018-08-09T07:45:01.549Z,44.27
2018-08-09T07:49:05.847Z,17.10
2018-08-09T07:53:10.258Z,16.23
2018-08-09T07:57:14.581Z,16.20
2018-08-09T08:01:18.829Z,16.90
2018-08-09T08:05:23.280Z,19.00
2018-08-09T08:09:27.588Z,30.17
2018-08-09T08:13:31.916Z,25.03
2018-08-09T08:17:36.167Z,20.80
2018-08-09T08:21:40.390Z,30.67
2018-08-09T08:25:44.745Z,33.87
2018-08-09T08:29:48.999Z,35.27
2018-08-09T08:33:53.712Z,31.67
2018-08-09T08:37:57.911Z,46.03
2018-08-09T08:42:02.340Z,43.60
2018-08-09T08:46:06.844Z,43.37
2018-08-09T08:50:11.487Z,25.13
2018-08-09T08:54:15.823Z,22.93
2018-08-09T08:58:20.112Z,23.87
2018-08-09T09:02:24.364Z,41.77
2018-08-09T09:06:28.606Z,39.97
2018-08-09T09:10:32.869Z,24.83
2018-08-09T09:14:37.208Z,29.13
2018-08-09T09:18:41.489Z,26.70
2018-08-09T09:22:46.149Z,26.10
2018-08-09T09:26:50.366Z,26.67
2018-08-09T09:30:54.721Z,23.70
2018-08-09T09:34:59.454Z,23.57
2018-08-09T09:39:04.044Z,27.80
2018-08-09T09:43:08.267Z,25.17
2018-08-09T09:47:12.555Z,27.13
2018-08-09T09:51:16.768Z,25.63
2018-08-09T09:55:21.081Z,29.60
2018-08-09T09:59:25.328Z,31.67
2018-08-09T10:03:29.595Z,29.50
2018-08-09T10:07:33.789Z,26.73
2018-08-09T10:11:38.040Z,23.70
2018-08-09T10:15:42.322Z,22.50
2018-08-09T10:19:46.526Z,24.53
2018-08-09T10:23:50.835Z,36.77
2018-08-09T10:27:55.039Z,56.33
2018-08-09T10:31:59.238Z,57.23
2018-08-09T10:36:03.533Z,48.20
2018-08-09T10:40:07.759Z,48.13
2018-08-09T10:44:12.066Z,50.63
2018-08-09T10:48:16.303Z,51.63
2018-08-09T10:52:20.573Z,56.20
2018-08-09T10:56:24.973Z,49.73
2018-08-09T11:00:30.302Z,62.47
2018-08-09T11:04:34.581Z,57.30
2018-08-09T11:08:38.931Z,37.05
2018-08-09T11:12:43.231Z,45.47
2018-08-09T11:16:47.573Z,33.97
2018-08-09T11:20:51.832Z,55.27
2018-08-09T11:24:56.072Z,50.97
2018-08-09T11:29:00.300Z,43.40
2018-08-09T11:33:05.796Z,47.77
2018-08-09T11:37:10.000Z,57.87
2018-08-09T11:41:14.327Z,29.87
2018-08-09T11:45:18.631Z,47.53
2018-08-09T11:49:22.905Z,36.30
2018-08-09T11:53:27.140Z,34.70
2018-08-09T11:57:31.471Z,35.40
2018-08-09T12:01:35.677Z,34.93
2018-08-09T12:05:40.097Z,43.23
2018-08-09T12:09:44.294Z,54.43
2018-08-09T12:13:48.591Z,34.23
2018-08-09T12:17:54.870Z,31.87
2018-08-09T12:21:59.088Z,31.63
2018-08-09T12:26:03.412Z,32.23
2018-08-09T12:30:10.512Z,32.70
2018-08-09T12:34:14.791Z,32.27
2018-08-09T12:38:19.116Z,31.87
2018-08-09T12:42:23.392Z,32.23
2018-08-09T12:46:27.692Z,33.30
2018-08-09T12:50:32.008Z,31.50
2018-08-09T12:54:36.402Z,31.80
2018-08-09T12:58:40.744Z,20.60
2018-08-09T13:02:44.999Z,31.37
2018-08-09T13:06:49.576Z,25.33
2018-08-09T13:10:53.957Z,22.30
2018-08-09T13:14:58.233Z,30.93
2018-08-09T13:19:02.436Z,31.37
2018-08-09T13:23:06.856Z,32.60
2018-08-09T13:27:11.090Z,26.00
2018-08-09T13:31:15.628Z,22.37
2018-08-09T13:35:19.959Z,25.73
2018-08-09T13:39:24.375Z,18.97
2018-08-09T13:43:28.645Z,18.57
2018-08-09T13:47:32.978Z,23.33
2018-08-09T13:51:37.310Z,19.87
2018-08-09T13:55:41.669Z,18.67
2018-08-09T13:59:46.005Z,17.93
2018-08-09T14:03:51.621Z,19.20
2018-08-09T14:07:55.944Z,20.90
2018-08-09T14:12:00.325Z,19.13
2018-08-09T14:16:04.653Z,19.80
2018-08-09T14:20:11.153Z,21.68
2018-08-09T14:24:15.497Z,19.77
2018-08-09T14:28:19.741Z,17.20
2018-08-09T14:32:24.048Z,21.70
2018-08-09T14:36:28.436Z,22.83
2018-08-09T14:40:32.738Z,20.10
2018-08-09T14:44:37.049Z,20.00
2018-08-09T14:48:41.385Z,20.40
2018-08-09T14:52:45.681Z,20.27
2018-08-09T14:56:52.233Z,21.70
2018-08-09T15:00:56.828Z,20.33
2018-08-09T15:05:01.187Z,20.60
2018-08-09T15:09:08.767Z,18.80
2018-08-09T15:13:13.107Z,20.37
2018-08-09T15:17:17.369Z,20.57
2018-08-09T15:21:21.736Z,18.47
2018-08-09T15:25:25.960Z,21.60
2018-08-09T15:29:30.615Z,22.27
2018-08-09T15:33:34.883Z,23.50
2018-08-09T15:37:39.138Z,21.10
2018-08-09T15:41:43.731Z,27.67
2018-08-09T15:45:47.914Z,29.10
2018-08-09T15:49:52.197Z,46.07
2018-08-09T15:53:56.468Z,75.37
2018-08-09T15:58:00.850Z,61.13
2018-08-09T16:02:05.145Z,55.43
2018-08-09T16:06:09.637Z,49.73
2018-08-09T16:10:15.046Z,46.70
2018-08-09T16:14:19.295Z,52.27
2018-08-09T16:18:23.545Z,52.27
2018-08-09T16:22:27.909Z,66.73
2018-08-09T16:26:32.213Z,53.57
2018-08-09T16:30:36.612Z,65.83
2018-08-09T16:34:40.835Z,57.63
2018-08-09T16:38:45.208Z,60.07
2018-08-09T16:42:49.585Z,49.30
2018-08-09T16:46:54.067Z,71.28
2018-08-09T16:50:59.112Z,67.87
2018-08-09T16:55:03.620Z,69.07
2018-08-09T16:59:07.931Z,68.17
2018-08-09T17:03:12.403Z,63.53
2018-08-09T17:07:16.857Z,67.67
2018-08-09T17:11:21.797Z,64.80
2018-08-09T17:15:28.928Z,71.13
2018-08-09T17:19:33.156Z,71.93
2018-08-09T17:23:37.497Z,69.57
2018-08-09T17:27:43.312Z,74.23
2018-08-09T17:31:47.755Z,57.10
2018-08-09T17:35:52.121Z,56.23
2018-08-09T17:39:56.832Z,68.27
2018-08-09T17:44:01.084Z,55.10
2018-08-09T17:48:06.090Z,67.20
2018-08-09T17:52:10.482Z,77.80
2018-08-09T17:56:14.744Z,52.57
2018-08-09T18:00:23.100Z,52.70
2018-08-09T18:04:27.351Z,59.43
2018-08-09T18:08:31.740Z,57.10
2018-08-09T18:12:35.999Z,39.63
2018-08-09T18:16:40.657Z,33.40
2018-08-09T18:20:45.058Z,37.77
2018-08-09T18:24:49.615Z,42.53
2018-08-09T18:28:54.177Z,31.27
2018-08-09T18:32:58.523Z,28.73
2018-08-09T18:37:02.940Z,80.10
2018-08-09T18:41:07.380Z,57.20
2018-08-09T18:45:12.228Z,34.17
2018-08-09T18:49:16.476Z,112.40
2018-08-09T18:53:20.879Z,115.57
2018-08-09T18:57:25.238Z,108.70
2018-08-09T19:01:29.534Z,105.40
2018-08-09T19:05:33.808Z,93.67
2018-08-09T19:09:38.070Z,84.53
2018-08-09T19:13:42.647Z,60.33
2018-08-09T19:17:47.251Z,71.03
2018-08-09T19:21:51.853Z,82.10
2018-08-09T19:25:56.342Z,73.30
2018-08-09T19:30:00.710Z,57.33
2018-08-09T19:34:05.516Z,68.67
2018-08-09T19:38:10.121Z,66.73
2018-08-09T19:42:14.722Z,61.90
2018-08-09T19:46:19.308Z,63.97
2018-08-09T19:50:24.785Z,69.07
2018-08-09T19:54:29.083Z,60.67
2018-08-09T19:58:34.805Z,61.10
2018-08-09T20:02:39.398Z,59.33
2018-08-09T20:06:44.073Z,66.50
2018-08-09T20:10:48.478Z,64.00
2018-08-09T20:14:53.014Z,58.33
2018-08-09T20:18:57.465Z,53.80
2018-08-09T20:23:02.168Z,46.97
2018-08-09T20:27:47.820Z,52.90
2018-08-09T20:40:26.759Z,44.90
2018-08-09T20:44:31.388Z,45.43
2018-08-09T20:48:36.012Z,44.60
2018-08-09T20:52:40.864Z,46.20
2018-08-09T20:56:45.212Z,42.97
2018-08-09T21:00:49.589Z,42.70
2018-08-09T21:04:53.835Z,43.87
2018-08-09T21:08:58.399Z,42.57
2018-08-09T21:13:02.902Z,43.63
2018-08-09T21:17:07.220Z,45.47
2018-08-09T21:21:11.453Z,44.17
2018-08-09T21:25:15.976Z,40.37
2018-08-09T21:29:20.323Z,47.93
2018-08-09T21:33:24.644Z,47.73
2018-08-09T21:37:28.961Z,48.17
2018-08-09T21:41:33.148Z,51.23
2018-08-09T21:45:37.545Z,55.83
2018-08-09T21:49:41.826Z,46.50
2018-08-09T21:53:46.122Z,49.17
2018-08-09T21:57:50.465Z,47.37
2018-08-09T22:01:54.780Z,50.67
2018-08-09T22:06:04.285Z,54.13
2018-08-09T22:10:13.640Z,53.07
2018-08-09T22:14:22.975Z,55.00
2018-08-09T22:18:32.541Z,57.63
2018-08-09T22:22:37.732Z,56.33
2018-08-09T22:26:42.031Z,59.10
2018-08-09T22:30:46.292Z,58.13
2018-08-09T22:34:50.515Z,52.73
2018-08-09T22:38:54.848Z,55.47
2018-08-09T22:42:59.050Z,54.23
2018-08-09T22:47:03.354Z,54.33
2018-08-09T22:51:07.913Z,57.07
2018-08-09T22:55:12.205Z,57.17
2018-08-09T22:59:16.576Z,56.53
2018-08-09T23:03:21.035Z,56.37
2018-08-09T23:07:25.304Z,59.67
2018-08-09T23:11:29.648Z,57.10
2018-08-09T23:15:33.909Z,58.53
2018-08-09T23:19:38.255Z,52.43
2018-08-09T23:23:42.625Z,57.13
2018-08-09T23:27:48.135Z,53.70
2018-08-09T23:31:52.783Z,58.20
2018-08-09T23:35:57.003Z,55.90
2018-08-09T23:40:01.332Z,57.97
2018-08-09T23:44:05.634Z,60.67
2018-08-09T23:48:09.968Z,58.10
2018-08-09T23:52:14.200Z,57.87
2018-08-09T23:56:18.459Z,57.33
